sensor_id;sensor_type;location;lat;lon;timestamp;temperature;humidity
19974;DHT22;10148;47.694;9.442;2023-02-04T00:00:18;5.60;99.90
19974;DHT22;10148;47.694;9.442;2023-02-04T00:02:44;5.50;99.90
19974;DHT22;10148;47.694;9.442;2023-02-04T00:05:10;5.50;99.90
19974;DHT22;10148;47.694;9.442;2023-02-04T00:07:36;5.50;99.90
19974;DHT22;10148;47.694;9.442;2023-02-04T00:10:04;5.40;99.90
19974;DHT22;10148;47.694;9.442;2023-02-04T00:12:30;5.30;99.90
19974;DHT22;10148;47.694;9.442;2023-02-04T00:14:56;5.30;99.90
19974;DHT22;10148;47.694;9.442;2023-02-04T00:17:22;5.30;99.90
19974;DHT22;10148;47.694;9.442;2023-02-04T00:19:48;5.30;99.90
19974;DHT22;10148;47.694;9.442;2023-02-04T00:22:14;5.30;99.90
19974;DHT22;10148;47.694;9.442;2023-02-04T00:24:39;5.30;99.90
19974;DHT22;10148;47.694;9.442;2023-02-04T00:27:07;5.20;99.90
19974;DHT22;10148;47.694;9.442;2023-02-04T00:29:33;5.20;99.90
19974;DHT22;10148;47.694;9.442;2023-02-04T00:31:58;5.20;99.90
19974;DHT22;10148;47.694;9.442;2023-02-04T00:34:24;5.20;99.90
19974;DHT22;10148;47.694;9.442;2023-02-04T00:36:50;5.20;99.90
19974;DHT22;10148;47.694;9.442;2023-02-04T00:39:15;5.20;99.90
19974;DHT22;10148;47.694;9.442;2023-02-04T00:41:41;5.20;99.90
19974;DHT22;10148;47.694;9.442;2023-02-04T00:44:06;5.10;99.90
19974;DHT22;10148;47.694;9.442;2023-02-04T00:46:32;5.10;99.90
19974;DHT22;10148;47.694;9.442;2023-02-04T00:48:57;5.00;99.90
19974;DHT22;10148;47.694;9.442;2023-02-04T00:51:23;5.00;99.90
19974;DHT22;10148;47.694;9.442;2023-02-04T00:53:48;5.00;99.90
19974;DHT22;10148;47.694;9.442;2023-02-04T00:56:14;5.00;99.90
19974;DHT22;10148;47.694;9.442;2023-02-04T00:58:39;5.00;99.90
19974;DHT22;10148;47.694;9.442;2023-02-04T01:01:05;4.90;99.90
19974;DHT22;10148;47.694;9.442;2023-02-04T01:03:30;4.90;99.90
19974;DHT22;10148;47.694;9.442;2023-02-04T01:05:56;4.90;99.90
19974;DHT22;10148;47.694;9.442;2023-02-04T01:08:21;4.90;99.90
19974;DHT22;10148;47.694;9.442;2023-02-04T01:10:47;4.90;99.90
19974;DHT22;10148;47.694;9.442;2023-02-04T01:13:12;4.80;99.90
19974;DHT22;10148;47.694;9.442;2023-02-04T01:15:38;4.80;99.90
19974;DHT22;10148;47.694;9.442;2023-02-04T01:18:04;4.80;99.90
19974;DHT22;10148;47.694;9.442;2023-02-04T01:20:29;4.80;99.90
19974;DHT22;10148;47.694;9.442;2023-02-04T01:22:55;4.70;99.90
19974;DHT22;10148;47.694;9.442;2023-02-04T01:25:21;4.70;99.90
19974;DHT22;10148;47.694;9.442;2023-02-04T01:27:46;4.70;99.90
19974;DHT22;10148;47.694;9.442;2023-02-04T01:30:13;4.70;99.90
19974;DHT22;10148;47.694;9.442;2023-02-04T01:32:39;4.70;99.90
19974;DHT22;10148;47.694;9.442;2023-02-04T01:35:05;4.70;99.90
19974;DHT22;10148;47.694;9.442;2023-02-04T01:37:31;4.70;99.90
19974;DHT22;10148;47.694;9.442;2023-02-04T01:39:56;4.70;99.90
19974;DHT22;10148;47.694;9.442;2023-02-04T01:42:22;4.70;99.90
19974;DHT22;10148;47.694;9.442;2023-02-04T01:44:48;4.70;99.90
19974;DHT22;10148;47.694;9.442;2023-02-04T01:47:14;4.70;99.90
19974;DHT22;10148;47.694;9.442;2023-02-04T01:49:39;4.70;99.90
19974;DHT22;10148;47.694;9.442;2023-02-04T01:52:05;4.70;99.90
19974;DHT22;10148;47.694;9.442;2023-02-04T01:54:31;4.70;99.90
19974;DHT22;10148;47.694;9.442;2023-02-04T01:56:57;4.70;99.90
19974;DHT22;10148;47.694;9.442;2023-02-04T01:59:23;4.70;99.90
19974;DHT22;10148;47.694;9.442;2023-02-04T02:01:50;4.70;99.90
19974;DHT22;10148;47.694;9.442;2023-02-04T02:04:29;4.70;99.90
19974;DHT22;10148;47.694;9.442;2023-02-04T02:06:57;4.70;99.90
19974;DHT22;10148;47.694;9.442;2023-02-04T02:09:25;4.70;99.90
19974;DHT22;10148;47.694;9.442;2023-02-04T02:11:52;4.70;99.90
19974;DHT22;10148;47.694;9.442;2023-02-04T02:14:17;4.70;99.90
19974;DHT22;10148;47.694;9.442;2023-02-04T02:16:43;4.70;99.90
19974;DHT22;10148;47.694;9.442;2023-02-04T02:19:12;4.70;99.90
19974;DHT22;10148;47.694;9.442;2023-02-04T02:21:50;4.70;99.90
19974;DHT22;10148;47.694;9.442;2023-02-04T02:24:24;4.70;99.90
19974;DHT22;10148;47.694;9.442;2023-02-04T02:26:52;4.70;99.90
19974;DHT22;10148;47.694;9.442;2023-02-04T02:29:18;4.80;99.90
19974;DHT22;10148;47.694;9.442;2023-02-04T02:31:43;4.70;99.90
19974;DHT22;10148;47.694;9.442;2023-02-04T02:34:09;4.80;99.90
19974;DHT22;10148;47.694;9.442;2023-02-04T02:36:35;4.80;99.90
19974;DHT22;10148;47.694;9.442;2023-02-04T02:39:01;4.80;99.90
19974;DHT22;10148;47.694;9.442;2023-02-04T02:41:26;4.80;99.90
19974;DHT22;10148;47.694;9.442;2023-02-04T02:43:52;4.80;99.90
19974;DHT22;10148;47.694;9.442;2023-02-04T02:46:18;4.80;99.90
19974;DHT22;10148;47.694;9.442;2023-02-04T02:48:43;4.80;99.90
19974;DHT22;10148;47.694;9.442;2023-02-04T02:51:09;4.80;99.90
19974;DHT22;10148;47.694;9.442;2023-02-04T02:53:34;4.80;99.90
19974;DHT22;10148;47.694;9.442;2023-02-04T02:56:00;4.90;99.90
19974;DHT22;10148;47.694;9.442;2023-02-04T02:58:30;4.80;99.90
19974;DHT22;10148;47.694;9.442;2023-02-04T03:01:02;4.80;99.90
19974;DHT22;10148;47.694;9.442;2023-02-04T03:03:35;4.80;99.90
19974;DHT22;10148;47.694;9.442;2023-02-04T03:06:08;4.80;99.90
19974;DHT22;10148;47.694;9.442;2023-02-04T03:08:36;4.80;99.90
19974;DHT22;10148;47.694;9.442;2023-02-04T03:11:02;4.80;99.90
19974;DHT22;10148;47.694;9.442;2023-02-04T03:13:28;4.80;99.90
19974;DHT22;10148;47.694;9.442;2023-02-04T03:15:54;4.90;99.90
19974;DHT22;10148;47.694;9.442;2023-02-04T03:18:20;4.90;99.90
19974;DHT22;10148;47.694;9.442;2023-02-04T03:20:48;4.90;99.90
19974;DHT22;10148;47.694;9.442;2023-02-04T03:23:15;4.90;99.90
19974;DHT22;10148;47.694;9.442;2023-02-04T03:25:41;4.80;99.90
19974;DHT22;10148;47.694;9.442;2023-02-04T03:28:08;4.80;99.90
19974;DHT22;10148;47.694;9.442;2023-02-04T03:30:34;4.80;99.90
19974;DHT22;10148;47.694;9.442;2023-02-04T03:32:59;4.80;99.90
19974;DHT22;10148;47.694;9.442;2023-02-04T03:35:25;4.80;99.90
19974;DHT22;10148;47.694;9.442;2023-02-04T03:37:50;4.80;99.90
19974;DHT22;10148;47.694;9.442;2023-02-04T03:40:16;4.80;99.90
19974;DHT22;10148;47.694;9.442;2023-02-04T03:42:41;4.80;99.90
19974;DHT22;10148;47.694;9.442;2023-02-04T03:45:07;4.80;99.90
19974;DHT22;10148;47.694;9.442;2023-02-04T03:47:33;4.80;99.90
19974;DHT22;10148;47.694;9.442;2023-02-04T03:49:58;4.80;99.90
19974;DHT22;10148;47.694;9.442;2023-02-04T03:52:24;4.90;99.90
19974;DHT22;10148;47.694;9.442;2023-02-04T03:54:49;4.80;99.90
19974;DHT22;10148;47.694;9.442;2023-02-04T03:57:15;4.80;99.90
19974;DHT22;10148;47.694;9.442;2023-02-04T03:59:40;4.80;99.90
19974;DHT22;10148;47.694;9.442;2023-02-04T04:02:06;4.80;99.90
19974;DHT22;10148;47.694;9.442;2023-02-04T04:04:32;4.80;99.90
19974;DHT22;10148;47.694;9.442;2023-02-04T04:06:58;4.80;99.90
19974;DHT22;10148;47.694;9.442;2023-02-04T04:09:23;4.80;99.90
19974;DHT22;10148;47.694;9.442;2023-02-04T04:11:49;4.80;99.90
19974;DHT22;10148;47.694;9.442;2023-02-04T04:14:14;4.80;99.90
19974;DHT22;10148;47.694;9.442;2023-02-04T04:16:40;4.80;99.90
19974;DHT22;10148;47.694;9.442;2023-02-04T04:19:05;4.80;99.90
19974;DHT22;10148;47.694;9.442;2023-02-04T04:21:31;4.80;99.90
19974;DHT22;10148;47.694;9.442;2023-02-04T04:23:56;4.80;99.90
19974;DHT22;10148;47.694;9.442;2023-02-04T04:26:22;4.80;99.90
19974;DHT22;10148;47.694;9.442;2023-02-04T04:28:47;4.80;99.90
19974;DHT22;10148;47.694;9.442;2023-02-04T04:31:13;4.80;99.90
19974;DHT22;10148;47.694;9.442;2023-02-04T04:33:38;4.80;99.90
19974;DHT22;10148;47.694;9.442;2023-02-04T04:36:05;4.80;99.90
19974;DHT22;10148;47.694;9.442;2023-02-04T04:38:31;4.80;99.90
19974;DHT22;10148;47.694;9.442;2023-02-04T04:40:57;4.80;99.90
19974;DHT22;10148;47.694;9.442;2023-02-04T04:43:22;4.80;99.90
19974;DHT22;10148;47.694;9.442;2023-02-04T04:45:48;4.80;99.90
19974;DHT22;10148;47.694;9.442;2023-02-04T04:48:14;4.80;99.90
19974;DHT22;10148;47.694;9.442;2023-02-04T04:50:39;4.80;99.90
19974;DHT22;10148;47.694;9.442;2023-02-04T04:53:05;4.80;99.90
19974;DHT22;10148;47.694;9.442;2023-02-04T04:55:36;4.80;99.90
19974;DHT22;10148;47.694;9.442;2023-02-04T04:58:01;4.80;99.90
19974;DHT22;10148;47.694;9.442;2023-02-04T05:00:27;4.80;99.90
19974;DHT22;10148;47.694;9.442;2023-02-04T05:02:52;4.80;99.90
19974;DHT22;10148;47.694;9.442;2023-02-04T05:05:18;4.80;99.90
19974;DHT22;10148;47.694;9.442;2023-02-04T05:07:43;4.80;99.90
19974;DHT22;10148;47.694;9.442;2023-02-04T05:10:09;4.80;99.90
19974;DHT22;10148;47.694;9.442;2023-02-04T05:12:34;4.80;99.90
19974;DHT22;10148;47.694;9.442;2023-02-04T05:15:00;4.80;99.90
19974;DHT22;10148;47.694;9.442;2023-02-04T05:17:26;4.80;99.90
19974;DHT22;10148;47.694;9.442;2023-02-04T05:19:52;4.80;99.90
19974;DHT22;10148;47.694;9.442;2023-02-04T05:22:17;4.80;99.90
19974;DHT22;10148;47.694;9.442;2023-02-04T05:24:43;4.80;99.90
19974;DHT22;10148;47.694;9.442;2023-02-04T05:27:08;4.80;99.90
19974;DHT22;10148;47.694;9.442;2023-02-04T05:29:34;4.80;99.90
19974;DHT22;10148;47.694;9.442;2023-02-04T05:31:59;4.80;99.90
19974;DHT22;10148;47.694;9.442;2023-02-04T05:34:25;4.80;99.90
19974;DHT22;10148;47.694;9.442;2023-02-04T05:36:50;4.80;99.90
19974;DHT22;10148;47.694;9.442;2023-02-04T05:39:16;4.80;99.90
19974;DHT22;10148;47.694;9.442;2023-02-04T05:41:41;4.80;99.90
19974;DHT22;10148;47.694;9.442;2023-02-04T05:44:07;4.80;99.90
19974;DHT22;10148;47.694;9.442;2023-02-04T05:46:32;4.80;99.90
19974;DHT22;10148;47.694;9.442;2023-02-04T05:48:58;4.80;99.90
19974;DHT22;10148;47.694;9.442;2023-02-04T05:51:23;4.80;99.90
19974;DHT22;10148;47.694;9.442;2023-02-04T05:53:49;4.80;99.90
19974;DHT22;10148;47.694;9.442;2023-02-04T05:56:14;4.80;99.90
19974;DHT22;10148;47.694;9.442;2023-02-04T05:58:40;4.80;99.90
19974;DHT22;10148;47.694;9.442;2023-02-04T06:01:05;4.80;99.90
19974;DHT22;10148;47.694;9.442;2023-02-04T06:03:31;4.80;99.90
19974;DHT22;10148;47.694;9.442;2023-02-04T06:05:57;4.80;99.90
19974;DHT22;10148;47.694;9.442;2023-02-04T06:08:23;4.80;99.90
19974;DHT22;10148;47.694;9.442;2023-02-04T06:10:48;4.80;99.90
19974;DHT22;10148;47.694;9.442;2023-02-04T06:13:14;4.80;99.90
19974;DHT22;10148;47.694;9.442;2023-02-04T06:15:40;4.80;99.90
19974;DHT22;10148;47.694;9.442;2023-02-04T06:18:05;4.80;99.90
19974;DHT22;10148;47.694;9.442;2023-02-04T06:20:31;4.80;99.90
19974;DHT22;10148;47.694;9.442;2023-02-04T06:22:57;4.80;99.90
19974;DHT22;10148;47.694;9.442;2023-02-04T06:25:22;4.80;99.90
19974;DHT22;10148;47.694;9.442;2023-02-04T06:27:48;4.80;99.90
19974;DHT22;10148;47.694;9.442;2023-02-04T06:30:15;4.80;99.90
19974;DHT22;10148;47.694;9.442;2023-02-04T06:32:41;4.80;99.90
19974;DHT22;10148;47.694;9.442;2023-02-04T06:35:07;4.80;99.90
19974;DHT22;10148;47.694;9.442;2023-02-04T06:37:32;4.80;99.90
19974;DHT22;10148;47.694;9.442;2023-02-04T06:39:58;4.80;99.90
19974;DHT22;10148;47.694;9.442;2023-02-04T06:42:24;4.80;99.90
19974;DHT22;10148;47.694;9.442;2023-02-04T06:44:50;4.80;99.90
19974;DHT22;10148;47.694;9.442;2023-02-04T06:47:16;4.80;99.90
19974;DHT22;10148;47.694;9.442;2023-02-04T06:49:42;4.80;99.90
19974;DHT22;10148;47.694;9.442;2023-02-04T06:52:07;4.80;99.90
19974;DHT22;10148;47.694;9.442;2023-02-04T06:54:33;4.80;99.90
19974;DHT22;10148;47.694;9.442;2023-02-04T06:56:59;4.80;99.90
19974;DHT22;10148;47.694;9.442;2023-02-04T06:59:32;4.80;99.90
19974;DHT22;10148;47.694;9.442;2023-02-04T07:01:57;4.80;99.90
19974;DHT22;10148;47.694;9.442;2023-02-04T07:04:23;4.80;99.90
19974;DHT22;10148;47.694;9.442;2023-02-04T07:06:48;4.80;99.90
19974;DHT22;10148;47.694;9.442;2023-02-04T07:09:14;4.80;99.90
19974;DHT22;10148;47.694;9.442;2023-02-04T07:11:39;4.80;99.90
19974;DHT22;10148;47.694;9.442;2023-02-04T07:14:05;4.80;99.90
19974;DHT22;10148;47.694;9.442;2023-02-04T07:16:30;4.80;99.90
19974;DHT22;10148;47.694;9.442;2023-02-04T07:18:56;4.80;99.90
19974;DHT22;10148;47.694;9.442;2023-02-04T07:21:22;4.80;99.90
19974;DHT22;10148;47.694;9.442;2023-02-04T07:23:47;4.80;99.90
19974;DHT22;10148;47.694;9.442;2023-02-04T07:26:13;4.80;99.90
19974;DHT22;10148;47.694;9.442;2023-02-04T07:28:38;4.80;99.90
19974;DHT22;10148;47.694;9.442;2023-02-04T07:31:05;4.80;99.90
19974;DHT22;10148;47.694;9.442;2023-02-04T07:33:31;4.90;99.90
19974;DHT22;10148;47.694;9.442;2023-02-04T07:35:56;4.90;99.90
19974;DHT22;10148;47.694;9.442;2023-02-04T07:38:22;4.90;99.90
19974;DHT22;10148;47.694;9.442;2023-02-04T07:40:47;4.90;99.90
19974;DHT22;10148;47.694;9.442;2023-02-04T07:43:13;4.90;99.90
19974;DHT22;10148;47.694;9.442;2023-02-04T07:45:38;4.90;99.90
19974;DHT22;10148;47.694;9.442;2023-02-04T07:48:04;4.90;99.90
19974;DHT22;10148;47.694;9.442;2023-02-04T07:50:30;4.90;99.90
19974;DHT22;10148;47.694;9.442;2023-02-04T07:52:55;4.90;99.90
19974;DHT22;10148;47.694;9.442;2023-02-04T07:55:21;4.90;99.90
19974;DHT22;10148;47.694;9.442;2023-02-04T07:57:46;4.90;99.90
19974;DHT22;10148;47.694;9.442;2023-02-04T08:00:12;4.90;99.90
19974;DHT22;10148;47.694;9.442;2023-02-04T08:02:39;4.90;99.90
19974;DHT22;10148;47.694;9.442;2023-02-04T08:05:06;4.90;99.90
19974;DHT22;10148;47.694;9.442;2023-02-04T08:07:32;4.80;99.90
19974;DHT22;10148;47.694;9.442;2023-02-04T08:09:58;4.80;99.90
19974;DHT22;10148;47.694;9.442;2023-02-04T08:12:23;4.80;99.90
19974;DHT22;10148;47.694;9.442;2023-02-04T08:14:49;4.90;99.90
19974;DHT22;10148;47.694;9.442;2023-02-04T08:17:14;4.90;99.90
19974;DHT22;10148;47.694;9.442;2023-02-04T08:19:40;4.90;99.90
19974;DHT22;10148;47.694;9.442;2023-02-04T08:22:05;4.90;99.90
19974;DHT22;10148;47.694;9.442;2023-02-04T08:24:31;4.90;99.90
19974;DHT22;10148;47.694;9.442;2023-02-04T08:26:56;4.90;99.90
19974;DHT22;10148;47.694;9.442;2023-02-04T08:29:23;4.90;99.90
19974;DHT22;10148;47.694;9.442;2023-02-04T08:31:50;4.90;99.90
19974;DHT22;10148;47.694;9.442;2023-02-04T08:34:16;4.90;99.90
19974;DHT22;10148;47.694;9.442;2023-02-04T08:36:41;5.00;99.90
19974;DHT22;10148;47.694;9.442;2023-02-04T08:39:09;4.90;99.90
19974;DHT22;10148;47.694;9.442;2023-02-04T08:41:34;4.90;99.90
19974;DHT22;10148;47.694;9.442;2023-02-04T08:44:00;4.90;99.90
19974;DHT22;10148;47.694;9.442;2023-02-04T08:46:25;5.00;99.90
19974;DHT22;10148;47.694;9.442;2023-02-04T08:48:51;5.00;99.90
19974;DHT22;10148;47.694;9.442;2023-02-04T08:51:17;5.00;99.90
19974;DHT22;10148;47.694;9.442;2023-02-04T08:53:42;5.10;99.90
19974;DHT22;10148;47.694;9.442;2023-02-04T08:56:08;5.00;99.90
19974;DHT22;10148;47.694;9.442;2023-02-04T08:58:34;5.10;99.90
19974;DHT22;10148;47.694;9.442;2023-02-04T09:01:00;5.10;99.90
19974;DHT22;10148;47.694;9.442;2023-02-04T09:03:26;5.10;99.90
19974;DHT22;10148;47.694;9.442;2023-02-04T09:05:51;5.10;99.90
19974;DHT22;10148;47.694;9.442;2023-02-04T09:08:17;5.20;99.90
19974;DHT22;10148;47.694;9.442;2023-02-04T09:10:42;5.20;99.90
19974;DHT22;10148;47.694;9.442;2023-02-04T09:13:08;5.30;99.90
19974;DHT22;10148;47.694;9.442;2023-02-04T09:15:36;5.30;99.90
19974;DHT22;10148;47.694;9.442;2023-02-04T09:18:01;5.30;99.90
19974;DHT22;10148;47.694;9.442;2023-02-04T09:20:36;5.30;99.90
19974;DHT22;10148;47.694;9.442;2023-02-04T09:23:03;5.40;99.90
19974;DHT22;10148;47.694;9.442;2023-02-04T09:25:31;5.40;99.90
19974;DHT22;10148;47.694;9.442;2023-02-04T09:27:56;5.40;99.90
19974;DHT22;10148;47.694;9.442;2023-02-04T09:30:22;5.50;99.90
19974;DHT22;10148;47.694;9.442;2023-02-04T09:32:47;5.50;99.90
19974;DHT22;10148;47.694;9.442;2023-02-04T09:35:13;5.50;99.90
19974;DHT22;10148;47.694;9.442;2023-02-04T09:37:38;5.60;99.90
19974;DHT22;10148;47.694;9.442;2023-02-04T09:40:04;5.60;99.90
19974;DHT22;10148;47.694;9.442;2023-02-04T09:42:30;5.60;99.90
19974;DHT22;10148;47.694;9.442;2023-02-04T09:44:56;5.70;99.90
19974;DHT22;10148;47.694;9.442;2023-02-04T09:47:23;5.70;99.90
19974;DHT22;10148;47.694;9.442;2023-02-04T09:49:49;5.90;99.90
19974;DHT22;10148;47.694;9.442;2023-02-04T09:52:16;5.90;99.90
19974;DHT22;10148;47.694;9.442;2023-02-04T09:54:43;6.00;99.90
19974;DHT22;10148;47.694;9.442;2023-02-04T09:57:14;6.00;99.90
19974;DHT22;10148;47.694;9.442;2023-02-04T09:59:42;6.00;99.90
19974;DHT22;10148;47.694;9.442;2023-02-04T10:02:22;6.00;99.90
19974;DHT22;10148;47.694;9.442;2023-02-04T10:04:49;6.00;99.90
19974;DHT22;10148;47.694;9.442;2023-02-04T10:07:17;6.10;99.90
19974;DHT22;10148;47.694;9.442;2023-02-04T10:09:46;6.10;99.90
19974;DHT22;10148;47.694;9.442;2023-02-04T10:12:12;6.10;99.90
19974;DHT22;10148;47.694;9.442;2023-02-04T10:14:38;6.20;99.90
19974;DHT22;10148;47.694;9.442;2023-02-04T10:17:04;6.30;99.90
19974;DHT22;10148;47.694;9.442;2023-02-04T10:19:32;6.30;99.90
19974;DHT22;10148;47.694;9.442;2023-02-04T10:21:58;6.30;99.90
19974;DHT22;10148;47.694;9.442;2023-02-04T10:24:25;6.30;99.90
19974;DHT22;10148;47.694;9.442;2023-02-04T10:26:51;6.20;99.90
19974;DHT22;10148;47.694;9.442;2023-02-04T10:29:19;6.20;99.90
19974;DHT22;10148;47.694;9.442;2023-02-04T10:31:47;6.20;99.90
19974;DHT22;10148;47.694;9.442;2023-02-04T10:34:19;6.20;99.90
19974;DHT22;10148;47.694;9.442;2023-02-04T10:36:48;6.20;99.90
19974;DHT22;10148;47.694;9.442;2023-02-04T10:39:29;6.20;99.90
19974;DHT22;10148;47.694;9.442;2023-02-04T10:41:57;6.20;99.90
19974;DHT22;10148;47.694;9.442;2023-02-04T10:44:31;6.30;99.90
19974;DHT22;10148;47.694;9.442;2023-02-04T10:47:02;6.30;99.90
19974;DHT22;10148;47.694;9.442;2023-02-04T10:49:28;6.40;99.90
19974;DHT22;10148;47.694;9.442;2023-02-04T10:51:53;6.40;99.90
19974;DHT22;10148;47.694;9.442;2023-02-04T10:54:22;6.50;99.90
19974;DHT22;10148;47.694;9.442;2023-02-04T10:59:46;6.70;99.90
19974;DHT22;10148;47.694;9.442;2023-02-04T11:04:46;6.90;99.90
19974;DHT22;10148;47.694;9.442;2023-02-04T11:07:12;6.90;99.90
19974;DHT22;10148;47.694;9.442;2023-02-04T11:09:40;7.00;99.90
19974;DHT22;10148;47.694;9.442;2023-02-04T11:14:56;6.90;99.90
19974;DHT22;10148;47.694;9.442;2023-02-04T11:17:29;7.00;99.90
19974;DHT22;10148;47.694;9.442;2023-02-04T11:19:55;7.10;99.90
19974;DHT22;10148;47.694;9.442;2023-02-04T11:22:42;7.20;99.90
19974;DHT22;10148;47.694;9.442;2023-02-04T11:25:40;7.20;99.90
19974;DHT22;10148;47.694;9.442;2023-02-04T11:28:14;7.30;99.90
19974;DHT22;10148;47.694;9.442;2023-02-04T11:30:39;7.50;99.90
19974;DHT22;10148;47.694;9.442;2023-02-04T11:33:18;7.60;99.90
19974;DHT22;10148;47.694;9.442;2023-02-04T11:36:03;7.80;99.90
19974;DHT22;10148;47.694;9.442;2023-02-04T11:38:30;7.80;99.90
19974;DHT22;10148;47.694;9.442;2023-02-04T11:40:56;7.70;99.90
19974;DHT22;10148;47.694;9.442;2023-02-04T11:43:22;7.70;99.90
19974;DHT22;10148;47.694;9.442;2023-02-04T11:45:48;7.50;99.90
19974;DHT22;10148;47.694;9.442;2023-02-04T11:48:16;7.50;99.90
19974;DHT22;10148;47.694;9.442;2023-02-04T11:50:42;7.40;99.90
19974;DHT22;10148;47.694;9.442;2023-02-04T11:53:18;7.40;99.90
19974;DHT22;10148;47.694;9.442;2023-02-04T11:55:48;7.30;99.90
19974;DHT22;10148;47.694;9.442;2023-02-04T11:58:15;7.40;99.90
19974;DHT22;10148;47.694;9.442;2023-02-04T12:00:42;7.40;99.90
19974;DHT22;10148;47.694;9.442;2023-02-04T12:03:30;7.80;99.90
19974;DHT22;10148;47.694;9.442;2023-02-04T12:05:58;8.20;99.90
19974;DHT22;10148;47.694;9.442;2023-02-04T12:08:31;8.70;99.90
19974;DHT22;10148;47.694;9.442;2023-02-04T12:11:09;9.00;99.90
19974;DHT22;10148;47.694;9.442;2023-02-04T12:13:47;9.30;99.90
19974;DHT22;10148;47.694;9.442;2023-02-04T12:16:14;9.30;99.90
19974;DHT22;10148;47.694;9.442;2023-02-04T12:18:39;9.00;99.90
19974;DHT22;10148;47.694;9.442;2023-02-04T12:21:05;8.60;99.90
19974;DHT22;10148;47.694;9.442;2023-02-04T12:23:30;8.20;99.90
19974;DHT22;10148;47.694;9.442;2023-02-04T12:25:56;8.00;99.90
19974;DHT22;10148;47.694;9.442;2023-02-04T12:28:22;7.80;99.90
19974;DHT22;10148;47.694;9.442;2023-02-04T12:30:48;7.80;99.90
19974;DHT22;10148;47.694;9.442;2023-02-04T12:33:13;7.50;99.90
19974;DHT22;10148;47.694;9.442;2023-02-04T12:35:39;7.40;99.90
19974;DHT22;10148;47.694;9.442;2023-02-04T12:38:05;7.40;99.90
19974;DHT22;10148;47.694;9.442;2023-02-04T12:40:31;7.30;99.90
19974;DHT22;10148;47.694;9.442;2023-02-04T12:42:57;7.20;99.90
19974;DHT22;10148;47.694;9.442;2023-02-04T12:45:22;7.20;99.90
19974;DHT22;10148;47.694;9.442;2023-02-04T12:47:48;7.20;99.90
19974;DHT22;10148;47.694;9.442;2023-02-04T12:50:16;7.10;99.90
19974;DHT22;10148;47.694;9.442;2023-02-04T12:52:53;7.10;99.90
19974;DHT22;10148;47.694;9.442;2023-02-04T12:55:19;7.00;99.90
19974;DHT22;10148;47.694;9.442;2023-02-04T12:57:44;7.00;99.90
19974;DHT22;10148;47.694;9.442;2023-02-04T13:00:12;7.00;99.90
19974;DHT22;10148;47.694;9.442;2023-02-04T13:02:38;6.90;99.90
19974;DHT22;10148;47.694;9.442;2023-02-04T13:05:03;6.90;99.90
19974;DHT22;10148;47.694;9.442;2023-02-04T13:07:29;6.90;99.90
19974;DHT22;10148;47.694;9.442;2023-02-04T13:09:55;6.90;99.90
19974;DHT22;10148;47.694;9.442;2023-02-04T13:12:21;6.90;99.90
19974;DHT22;10148;47.694;9.442;2023-02-04T13:14:47;6.90;99.90
19974;DHT22;10148;47.694;9.442;2023-02-04T13:17:12;6.90;99.90
19974;DHT22;10148;47.694;9.442;2023-02-04T13:19:38;6.90;99.90
19974;DHT22;10148;47.694;9.442;2023-02-04T13:22:03;6.90;99.90
19974;DHT22;10148;47.694;9.442;2023-02-04T13:24:29;6.90;99.90
19974;DHT22;10148;47.694;9.442;2023-02-04T13:26:55;6.80;99.90
19974;DHT22;10148;47.694;9.442;2023-02-04T13:29:20;6.80;99.90
19974;DHT22;10148;47.694;9.442;2023-02-04T13:31:47;6.90;99.90
19974;DHT22;10148;47.694;9.442;2023-02-04T13:34:13;6.90;99.90
19974;DHT22;10148;47.694;9.442;2023-02-04T13:36:38;6.90;99.90
19974;DHT22;10148;47.694;9.442;2023-02-04T13:39:04;6.90;99.90
19974;DHT22;10148;47.694;9.442;2023-02-04T13:41:30;6.90;99.90
19974;DHT22;10148;47.694;9.442;2023-02-04T13:43:55;6.90;99.90
19974;DHT22;10148;47.694;9.442;2023-02-04T13:46:22;6.90;99.90
19974;DHT22;10148;47.694;9.442;2023-02-04T13:48:48;7.00;99.90
19974;DHT22;10148;47.694;9.442;2023-02-04T13:51:15;7.00;99.90
19974;DHT22;10148;47.694;9.442;2023-02-04T13:53:41;7.00;99.90
19974;DHT22;10148;47.694;9.442;2023-02-04T13:56:06;7.10;99.90
19974;DHT22;10148;47.694;9.442;2023-02-04T13:58:32;7.20;99.90
19974;DHT22;10148;47.694;9.442;2023-02-04T14:00:58;7.30;99.90
19974;DHT22;10148;47.694;9.442;2023-02-04T14:03:24;7.30;99.90
19974;DHT22;10148;47.694;9.442;2023-02-04T14:05:50;7.20;99.90
19974;DHT22;10148;47.694;9.442;2023-02-04T14:08:15;7.20;99.90
19974;DHT22;10148;47.694;9.442;2023-02-04T14:10:41;7.20;99.90
19974;DHT22;10148;47.694;9.442;2023-02-04T14:13:06;7.20;99.90
19974;DHT22;10148;47.694;9.442;2023-02-04T14:15:32;7.10;99.90
19974;DHT22;10148;47.694;9.442;2023-02-04T14:17:59;7.20;99.90
19974;DHT22;10148;47.694;9.442;2023-02-04T14:20:25;7.20;99.90
19974;DHT22;10148;47.694;9.442;2023-02-04T14:22:51;7.20;99.90
19974;DHT22;10148;47.694;9.442;2023-02-04T14:25:16;7.20;99.90
19974;DHT22;10148;47.694;9.442;2023-02-04T14:27:42;7.20;99.90
19974;DHT22;10148;47.694;9.442;2023-02-04T14:30:27;7.20;99.90
19974;DHT22;10148;47.694;9.442;2023-02-04T14:32:54;7.20;99.90
19974;DHT22;10148;47.694;9.442;2023-02-04T14:35:20;7.20;99.90
19974;DHT22;10148;47.694;9.442;2023-02-04T14:37:46;7.20;99.90
19974;DHT22;10148;47.694;9.442;2023-02-04T14:40:12;7.20;99.90
19974;DHT22;10148;47.694;9.442;2023-02-04T14:42:38;7.10;99.90
19974;DHT22;10148;47.694;9.442;2023-02-04T14:45:05;7.10;99.90
19974;DHT22;10148;47.694;9.442;2023-02-04T14:47:33;7.00;99.90
19974;DHT22;10148;47.694;9.442;2023-02-04T14:49:58;7.00;99.90
19974;DHT22;10148;47.694;9.442;2023-02-04T14:52:24;7.00;99.90
19974;DHT22;10148;47.694;9.442;2023-02-04T14:54:50;6.90;99.90
19974;DHT22;10148;47.694;9.442;2023-02-04T14:57:15;6.80;99.90
19974;DHT22;10148;47.694;9.442;2023-02-04T14:59:41;6.80;99.90
19974;DHT22;10148;47.694;9.442;2023-02-04T15:02:08;6.70;99.90
19974;DHT22;10148;47.694;9.442;2023-02-04T15:04:34;6.70;99.90
19974;DHT22;10148;47.694;9.442;2023-02-04T15:07:00;6.70;99.90
19974;DHT22;10148;47.694;9.442;2023-02-04T15:09:27;6.60;99.90
19974;DHT22;10148;47.694;9.442;2023-02-04T15:11:53;6.70;99.90
19974;DHT22;10148;47.694;9.442;2023-02-04T15:14:18;6.70;99.90
19974;DHT22;10148;47.694;9.442;2023-02-04T15:16:44;6.70;99.90
19974;DHT22;10148;47.694;9.442;2023-02-04T15:19:13;6.60;99.90
19974;DHT22;10148;47.694;9.442;2023-02-04T15:21:39;6.60;99.90
19974;DHT22;10148;47.694;9.442;2023-02-04T15:24:05;6.60;99.90
19974;DHT22;10148;47.694;9.442;2023-02-04T15:26:31;6.60;99.90
19974;DHT22;10148;47.694;9.442;2023-02-04T15:28:56;6.60;99.90
19974;DHT22;10148;47.694;9.442;2023-02-04T15:31:23;6.60;99.90
19974;DHT22;10148;47.694;9.442;2023-02-04T15:33:48;6.70;99.90
19974;DHT22;10148;47.694;9.442;2023-02-04T15:36:14;6.70;99.90
19974;DHT22;10148;47.694;9.442;2023-02-04T15:38:40;6.60;99.90
19974;DHT22;10148;47.694;9.442;2023-02-04T15:41:05;6.60;99.90
19974;DHT22;10148;47.694;9.442;2023-02-04T15:43:31;6.60;99.90
19974;DHT22;10148;47.694;9.442;2023-02-04T15:45:56;6.60;99.90
19974;DHT22;10148;47.694;9.442;2023-02-04T15:48:22;6.60;99.90